createdAt,value
2023-03-23T15:58:44.228Z,54.36
2023-03-23T15:59:48.137Z,54.07
2023-03-23T16:00:52.634Z,54.20
2023-03-23T16:01:55.495Z,54.15
2023-03-23T16:03:08.037Z,53.92
2023-03-23T16:04:18.825Z,54.19
2023-03-23T16:05:21.058Z,53.98
2023-03-23T16:06:26.504Z,53.64
2023-03-23T16:07:28.879Z,53.26
2023-03-23T16:08:31.106Z,52.95
2023-03-23T16:09:33.691Z,53.06
2023-03-23T16:10:36.168Z,53.30
2023-03-23T16:11:38.438Z,53.00
2023-03-23T16:12:40.652Z,53.00
2023-03-23T16:13:43.383Z,52.83
2023-03-23T16:14:45.918Z,53.01
2023-03-23T16:15:48.868Z,52.87
2023-03-23T16:16:53.083Z,52.70
2023-03-23T16:17:55.427Z,53.06
2023-03-23T16:18:57.669Z,53.01
2023-03-23T16:20:00.133Z,53.04
2023-03-23T16:21:03.710Z,53.44
2023-03-23T16:22:05.875Z,52.79
2023-03-23T16:23:08.083Z,52.93
2023-03-23T16:24:11.022Z,52.35
2023-03-23T16:25:14.429Z,53.05
2023-03-23T16:26:17.271Z,52.55
2023-03-23T16:27:21.527Z,52.37
2023-03-23T16:28:24.098Z,52.34
2023-03-23T16:29:46.640Z,52.62
2023-03-23T16:30:48.947Z,52.67
2023-03-23T16:31:51.386Z,52.76
2023-03-23T16:32:55.548Z,53.16
2023-03-23T16:33:59.930Z,53.34
2023-03-23T16:35:02.355Z,52.96
2023-03-23T16:36:04.962Z,52.90
2023-03-23T16:37:07.353Z,53.12
2023-03-23T16:38:17.595Z,53.15
2023-03-23T16:39:20.190Z,53.10
2023-03-23T16:40:23.136Z,53.75
2023-03-23T16:41:25.325Z,53.80
2023-03-23T16:42:27.769Z,53.80
2023-03-23T16:43:30.100Z,53.63
2023-03-23T16:44:32.340Z,53.62
2023-03-23T16:45:34.827Z,53.43
2023-03-23T16:46:37.090Z,53.46
2023-03-23T16:47:40.354Z,53.29
2023-03-23T16:48:42.585Z,53.40
2023-03-23T16:49:45.596Z,53.41
2023-03-23T16:50:47.987Z,53.47
2023-03-23T16:51:50.210Z,53.35
2023-03-23T16:52:52.384Z,53.35
2023-03-23T16:53:54.805Z,54.00
2023-03-23T16:54:57.242Z,53.93
2023-03-23T16:55:59.644Z,54.13
2023-03-23T16:57:01.864Z,54.35
2023-03-23T16:58:16.299Z,54.41
2023-03-23T16:59:18.901Z,54.22
2023-03-23T17:00:22.130Z,54.53
2023-03-23T17:01:24.767Z,54.45
2023-03-23T17:02:27.309Z,54.46
2023-03-23T17:03:31.581Z,54.35
2023-03-23T17:04:34.474Z,54.45
2023-03-23T17:05:37.448Z,53.84
2023-03-23T17:06:39.958Z,54.36
2023-03-23T17:07:42.474Z,53.97
2023-03-23T17:08:44.668Z,53.50
2023-03-23T17:09:46.931Z,53.41
2023-03-23T17:10:49.516Z,53.11
2023-03-23T17:11:52.970Z,53.47
2023-03-23T17:12:56.410Z,53.57
2023-03-23T17:13:58.610Z,53.24
2023-03-23T17:15:00.866Z,53.31
2023-03-23T17:16:03.317Z,53.28
2023-03-23T17:17:05.849Z,53.55
2023-03-23T17:18:08.610Z,53.60
2023-03-23T17:19:11.099Z,53.18
2023-03-23T17:20:13.958Z,53.05
2023-03-23T17:21:16.537Z,52.88
2023-03-23T17:22:19.165Z,53.13
2023-03-23T17:23:22.045Z,53.12
2023-03-23T17:24:24.675Z,52.91
2023-03-23T17:25:28.157Z,52.80
2023-03-23T17:26:30.818Z,52.84
2023-03-23T17:27:33.022Z,53.01
2023-03-23T17:28:35.221Z,52.92
2023-03-23T17:29:37.740Z,53.74
2023-03-23T17:30:42.357Z,53.59
2023-03-23T17:31:44.848Z,53.74
2023-03-23T17:32:47.917Z,53.65
2023-03-23T17:33:51.661Z,53.44
2023-03-23T17:34:54.072Z,52.89
2023-03-23T17:35:56.499Z,52.88
2023-03-23T17:36:58.878Z,53.10
2023-03-23T17:38:01.535Z,53.46
2023-03-23T17:39:03.949Z,53.64
2023-03-23T17:40:10.265Z,53.79
2023-03-23T17:41:12.720Z,53.78
2023-03-23T17:42:15.433Z,53.75
2023-03-23T17:43:17.645Z,53.99
2023-03-23T17:44:19.863Z,54.31
2023-03-23T17:45:22.147Z,53.95
2023-03-23T17:46:24.882Z,53.53
2023-03-23T17:47:27.284Z,53.96
2023-03-23T17:48:29.528Z,53.80
2023-03-23T17:49:32.234Z,53.61
2023-03-23T17:50:35.460Z,54.11
2023-03-23T17:51:37.987Z,53.99
2023-03-23T17:52:41.673Z,54.15
2023-03-23T17:53:43.887Z,54.08
2023-03-23T17:54:46.263Z,53.97
2023-03-23T17:55:48.444Z,54.31
2023-03-23T17:56:51.601Z,54.24
2023-03-23T17:57:54.089Z,54.36
2023-03-23T17:58:56.254Z,54.73
2023-03-23T17:59:58.415Z,54.58
2023-03-23T18:01:01.690Z,54.72
2023-03-23T18:02:04.074Z,54.90
2023-03-23T18:03:06.442Z,54.85
2023-03-23T18:04:08.751Z,54.97
2023-03-23T18:05:11.811Z,54.68
2023-03-23T18:06:14.195Z,55.02
2023-03-23T18:07:16.621Z,55.22
2023-03-23T18:08:19.111Z,55.44
2023-03-23T18:09:21.530Z,55.52
2023-03-23T18:10:23.718Z,55.87
2023-03-23T18:11:27.531Z,55.76
2023-03-23T18:12:29.831Z,55.57
2023-03-23T18:13:36.011Z,55.66
2023-03-23T18:14:39.977Z,55.89
2023-03-23T18:15:46.820Z,56.13
2023-03-23T18:16:49.442Z,56.73
2023-03-23T18:17:52.276Z,56.33
2023-03-23T18:18:54.556Z,56.12
2023-03-23T18:19:56.908Z,56.08
2023-03-23T18:21:08.680Z,56.40
2023-03-23T18:22:10.899Z,56.45
2023-03-23T18:23:13.921Z,56.39
2023-03-23T18:24:16.299Z,56.55
2023-03-23T18:25:18.886Z,56.80
2023-03-23T18:26:21.987Z,56.93
2023-03-23T18:27:24.357Z,57.01
2023-03-23T18:28:27.598Z,57.15
2023-03-23T18:29:29.780Z,57.03
2023-03-23T18:30:33.254Z,56.96
2023-03-23T18:31:40.050Z,56.97
2023-03-23T18:32:42.895Z,57.05
2023-03-23T18:33:47.808Z,56.87
2023-03-23T18:34:50.225Z,56.96
2023-03-23T18:36:00.806Z,56.90
2023-03-23T18:37:06.699Z,57.01
2023-03-23T18:38:09.449Z,57.03
2023-03-23T18:39:12.385Z,57.17
2023-03-23T18:40:15.689Z,57.33
2023-03-23T18:41:18.658Z,57.60
2023-03-23T18:42:21.395Z,57.60
2023-03-23T18:43:24.252Z,57.61
2023-03-23T18:44:29.426Z,57.48
2023-03-23T18:45:33.166Z,57.72
2023-03-23T18:46:37.782Z,57.84
2023-03-23T18:47:40.383Z,57.80
2023-03-23T18:48:42.811Z,57.71
2023-03-23T18:49:47.333Z,57.79
2023-03-23T18:50:52.329Z,57.76
2023-03-23T18:51:54.548Z,57.72
2023-03-23T18:52:56.761Z,57.90
2023-03-23T18:53:59.414Z,58.38
2023-03-23T18:55:01.766Z,58.26
2023-03-23T18:56:07.602Z,57.86
2023-03-23T18:57:09.818Z,58.23
2023-03-23T18:58:13.621Z,58.40
2023-03-23T18:59:15.945Z,58.23
2023-03-23T19:00:18.511Z,58.24
2023-03-23T19:01:20.882Z,58.41
2023-03-23T19:02:23.794Z,58.42
2023-03-23T19:03:29.649Z,58.72
2023-03-23T19:04:33.068Z,58.81
2023-03-23T19:05:39.693Z,59.17
2023-03-23T19:06:44.102Z,59.16
2023-03-23T19:07:46.526Z,59.42
2023-03-23T19:08:50.269Z,59.53
2023-03-23T19:09:52.590Z,59.84
2023-03-23T19:11:02.185Z,59.96
2023-03-23T19:12:04.704Z,59.77
2023-03-23T19:13:08.754Z,59.73
2023-03-23T19:14:11.698Z,59.72
2023-03-23T19:15:14.538Z,59.85
2023-03-23T19:16:16.862Z,59.89
2023-03-23T19:17:19.975Z,59.76
2023-03-23T19:18:22.457Z,59.98
2023-03-23T19:19:25.455Z,60.44
2023-03-23T19:20:54.865Z,60.58
2023-03-23T19:22:55.932Z,60.61
2023-03-23T19:24:00.568Z,60.46
2023-03-23T19:25:04.189Z,60.33
2023-03-23T19:26:06.415Z,60.35
2023-03-23T19:27:09.428Z,60.50
2023-03-23T19:29:00.610Z,60.67
2023-03-23T19:29:35.878Z,60.75
2023-03-23T19:30:46.598Z,60.95
2023-03-23T19:31:49.198Z,61.01
2023-03-23T19:32:51.515Z,61.02
2023-03-23T19:33:54.437Z,60.72
2023-03-23T19:34:57.212Z,60.71
2023-03-23T19:36:09.350Z,60.74
2023-03-23T19:37:16.272Z,60.71
2023-03-23T19:38:21.207Z,60.96
2023-03-23T19:39:23.771Z,61.08
2023-03-23T19:40:49.913Z,61.09
2023-03-23T19:41:48.877Z,61.03
2023-03-23T19:42:51.153Z,60.99
2023-03-23T19:43:53.796Z,61.03
2023-03-23T19:44:55.982Z,61.11
2023-03-23T19:45:58.223Z,61.08
2023-03-23T19:47:01.149Z,61.36
2023-03-23T19:48:03.575Z,61.28
2023-03-23T19:49:06.313Z,60.95
2023-03-23T19:50:08.672Z,61.22
2023-03-23T19:51:12.206Z,61.12
2023-03-23T19:52:16.914Z,61.21
2023-03-23T19:53:21.166Z,61.16
2023-03-23T19:54:23.597Z,61.19
2023-03-23T19:55:25.975Z,61.26
2023-03-23T19:56:30.000Z,61.59
2023-03-23T19:57:32.420Z,61.60
2023-03-23T19:58:34.960Z,61.29
2023-03-23T19:59:38.645Z,61.36
2023-03-23T20:00:41.554Z,61.05
2023-03-23T20:01:44.572Z,61.35
2023-03-23T20:02:47.386Z,61.38
2023-03-23T20:03:49.741Z,61.42
2023-03-23T20:04:52.414Z,61.66
2023-03-23T20:06:01.319Z,61.48
2023-03-23T20:07:07.580Z,61.77
2023-03-23T20:08:11.114Z,61.91
2023-03-23T20:09:13.900Z,61.88
2023-03-23T20:10:16.644Z,62.05
2023-03-23T20:11:19.869Z,62.03
2023-03-23T20:12:22.396Z,62.08
2023-03-23T20:13:24.618Z,62.24
2023-03-23T20:14:27.164Z,62.22
2023-03-23T20:15:33.681Z,61.81
2023-03-23T20:16:36.095Z,62.13
2023-03-23T20:17:38.560Z,62.41
2023-03-23T20:18:41.200Z,62.90
2023-03-23T20:19:44.679Z,62.46
2023-03-23T20:20:50.106Z,62.56
2023-03-23T20:21:56.357Z,62.51
2023-03-23T20:22:59.169Z,62.75
2023-03-23T20:24:01.557Z,62.92
2023-03-23T20:25:04.940Z,62.79
2023-03-23T20:26:13.640Z,62.97
2023-03-23T20:27:17.329Z,63.21
2023-03-23T20:28:19.676Z,63.00
2023-03-23T20:29:22.065Z,62.99
2023-03-23T20:30:24.720Z,63.22
2023-03-23T20:31:31.414Z,63.14
2023-03-23T20:32:37.211Z,63.11
2023-03-23T20:33:39.797Z,63.25
2023-03-23T20:34:42.111Z,63.02
2023-03-23T20:35:44.707Z,62.91
2023-03-23T20:36:49.098Z,63.09
2023-03-23T20:37:52.698Z,63.05
2023-03-23T20:38:55.176Z,63.00
2023-03-23T20:39:57.812Z,63.11
2023-03-23T20:41:02.554Z,63.27
2023-03-23T20:42:06.011Z,63.59
2023-03-23T20:43:10.792Z,63.50
2023-03-23T20:44:15.834Z,63.52
2023-03-23T20:45:18.632Z,63.70
2023-03-23T20:46:24.138Z,63.76
2023-03-23T20:47:28.089Z,63.56
2023-03-23T20:48:33.861Z,63.94
2023-03-23T20:49:38.519Z,64.00
2023-03-23T20:50:41.474Z,64.21
2023-03-23T20:51:44.817Z,64.29
2023-03-23T20:52:47.976Z,64.32
2023-03-23T20:53:50.190Z,64.52
2023-03-23T20:54:53.458Z,64.40
2023-03-23T20:55:58.459Z,64.55
2023-03-23T20:57:01.222Z,64.56
2023-03-23T20:58:03.472Z,64.67
2023-03-23T20:59:05.819Z,64.68
2023-03-23T21:00:09.340Z,64.48
2023-03-23T21:01:12.244Z,64.48
2023-03-23T21:02:16.923Z,64.50
2023-03-23T21:03:19.092Z,64.59
2023-03-23T21:04:27.088Z,64.74
2023-03-23T21:05:29.569Z,64.67
2023-03-23T21:06:32.974Z,64.63
2023-03-23T21:07:36.137Z,64.59
2023-03-23T21:08:40.169Z,64.59
2023-03-23T21:09:43.103Z,64.64
2023-03-23T21:10:46.395Z,65.05
2023-03-23T21:11:49.349Z,65.00
2023-03-23T21:12:51.583Z,65.15
2023-03-23T21:13:54.256Z,65.06
2023-03-23T21:14:56.906Z,65.15
2023-03-23T21:16:02.089Z,65.12
2023-03-23T21:17:06.428Z,65.08
2023-03-23T21:18:10.082Z,65.00
2023-03-23T21:19:12.981Z,65.30
2023-03-23T21:20:15.351Z,65.33
2023-03-23T21:21:18.456Z,65.32
2023-03-23T21:22:21.638Z,65.45
2023-03-23T21:23:26.530Z,65.45
2023-03-23T21:24:31.296Z,65.57
2023-03-23T21:25:36.102Z,65.09
2023-03-23T21:26:40.117Z,65.28
2023-03-23T21:27:42.622Z,65.40
2023-03-23T21:28:46.033Z,65.49
2023-03-23T21:29:48.827Z,65.39
2023-03-23T21:30:52.472Z,65.52
2023-03-23T21:32:07.835Z,65.37
2023-03-23T21:33:13.104Z,65.25
2023-03-23T21:34:15.315Z,65.11
2023-03-23T21:35:17.625Z,65.02
2023-03-23T21:36:19.934Z,65.06
2023-03-23T21:37:22.234Z,65.13
2023-03-23T21:38:26.916Z,65.19
2023-03-23T21:39:29.149Z,65.33
2023-03-23T21:40:31.822Z,65.14
2023-03-23T21:41:41.726Z,65.24
2023-03-23T21:42:45.747Z,65.11
2023-03-23T21:43:48.248Z,65.23
2023-03-23T21:44:50.424Z,65.25
2023-03-23T21:45:57.327Z,65.21
2023-03-23T21:47:01.853Z,65.07
2023-03-23T21:48:06.302Z,65.02
2023-03-23T21:49:10.791Z,65.00
2023-03-23T21:50:14.001Z,65.02
2023-03-23T21:51:17.236Z,65.15
2023-03-23T21:52:20.934Z,65.12
2023-03-23T21:53:25.361Z,65.22
2023-03-23T21:54:30.150Z,65.01
2023-03-23T21:55:33.645Z,64.86
2023-03-23T21:56:36.955Z,64.98
2023-03-23T21:57:40.261Z,64.97
2023-03-23T21:58:42.914Z,65.12
2023-03-23T21:59:45.327Z,65.13
2023-03-23T22:00:50.156Z,65.04
2023-03-23T22:01:53.833Z,65.17
2023-03-23T22:02:57.430Z,65.27
2023-03-23T22:03:59.718Z,65.15
2023-03-23T22:05:02.057Z,65.02
2023-03-23T22:06:15.805Z,65.15
2023-03-23T22:07:19.345Z,65.69
2023-03-23T22:08:22.591Z,65.83
2023-03-23T22:09:24.987Z,65.88
2023-03-23T22:10:27.502Z,66.03
2023-03-23T22:11:34.107Z,66.20
2023-03-23T22:12:37.464Z,66.14
2023-03-23T22:13:41.227Z,66.02
2023-03-23T22:14:44.033Z,66.41
2023-03-23T22:15:47.909Z,66.30
2023-03-23T22:16:50.176Z,66.51
2023-03-23T22:17:52.684Z,66.58
2023-03-23T22:18:56.451Z,66.59
2023-03-23T22:20:00.329Z,66.54
2023-03-23T22:21:02.751Z,66.43
2023-03-23T22:22:05.839Z,66.47
2023-03-23T22:23:08.295Z,66.41
2023-03-23T22:24:10.665Z,66.75
2023-03-23T22:25:13.480Z,66.63
2023-03-23T22:26:16.634Z,66.34
2023-03-23T22:27:19.121Z,66.59
2023-03-23T22:28:23.131Z,66.63
2023-03-23T22:29:25.428Z,66.69
2023-03-23T22:30:29.834Z,66.79
2023-03-23T22:31:35.127Z,66.87
2023-03-23T22:32:37.700Z,67.27
2023-03-23T22:33:40.099Z,67.17
2023-03-23T22:34:42.797Z,67.48
2023-03-23T22:35:47.896Z,67.52
2023-03-23T22:36:50.979Z,67.48
2023-03-23T22:37:53.405Z,67.44
2023-03-23T22:38:56.604Z,67.58
2023-03-23T22:39:59.452Z,67.76
2023-03-23T22:41:02.948Z,67.43
2023-03-23T22:42:05.344Z,67.34
2023-03-23T22:43:08.842Z,67.45
2023-03-23T22:44:18.333Z,67.44
2023-03-23T22:45:21.010Z,67.84
2023-03-23T22:46:24.367Z,67.78
2023-03-23T22:47:26.606Z,67.77
2023-03-23T22:48:29.397Z,67.76
2023-03-23T22:49:32.970Z,67.74
2023-03-23T22:50:35.388Z,67.83
2023-03-23T22:51:38.270Z,68.16
2023-03-23T22:52:40.722Z,67.98
2023-03-23T22:53:43.625Z,67.57
2023-03-23T22:54:46.011Z,67.71
2023-03-23T22:55:50.838Z,67.59
2023-03-23T22:56:53.220Z,67.63
2023-03-23T22:57:55.918Z,67.51
2023-03-23T22:59:00.272Z,67.48
2023-03-23T23:00:09.110Z,67.60
2023-03-23T23:01:15.429Z,67.23
2023-03-23T23:02:17.784Z,67.36
2023-03-23T23:03:20.060Z,67.37
2023-03-23T23:04:22.837Z,67.78
2023-03-23T23:05:25.151Z,67.74
2023-03-23T23:06:27.617Z,67.96
2023-03-23T23:07:29.910Z,67.70
2023-03-23T23:08:33.128Z,67.81
2023-03-23T23:09:35.749Z,68.03
2023-03-23T23:10:39.833Z,67.82
2023-03-23T23:11:42.088Z,67.93
2023-03-23T23:12:45.598Z,67.82
2023-03-23T23:13:49.082Z,67.83
2023-03-23T23:14:51.759Z,67.92
2023-03-23T23:15:56.930Z,67.93
2023-03-23T23:16:59.318Z,68.00
2023-03-23T23:18:03.044Z,68.14
2023-03-23T23:19:05.745Z,68.11
2023-03-23T23:20:12.906Z,67.78
2023-03-23T23:21:21.290Z,67.81
2023-03-23T23:22:23.590Z,67.87
2023-03-23T23:23:27.888Z,67.81
2023-03-23T23:24:31.026Z,67.79
2023-03-23T23:25:33.998Z,67.47
2023-03-23T23:26:36.598Z,67.53
2023-03-23T23:27:38.876Z,67.29
2023-03-23T23:28:42.441Z,67.05
2023-03-23T23:29:44.910Z,67.09
2023-03-23T23:30:48.301Z,67.02
2023-03-23T23:31:51.020Z,66.87
2023-03-23T23:32:53.933Z,67.34
2023-03-23T23:33:57.676Z,67.38
2023-03-23T23:35:00.012Z,67.60
2023-03-23T23:36:03.009Z,67.68
2023-03-23T23:37:05.743Z,67.56
2023-03-23T23:38:09.754Z,67.61
2023-03-23T23:39:12.169Z,67.79
2023-03-23T23:40:15.889Z,67.71
2023-03-23T23:41:18.651Z,67.51
2023-03-23T23:42:20.958Z,67.55
2023-03-23T23:43:23.399Z,67.54
2023-03-23T23:44:25.993Z,67.70
2023-03-23T23:45:28.957Z,67.86
2023-03-23T23:46:32.115Z,67.86
2023-03-23T23:47:34.519Z,67.70
2023-03-23T23:48:36.956Z,67.39
2023-03-23T23:49:40.202Z,67.23
2023-03-23T23:50:42.457Z,67.31
2023-03-23T23:51:44.785Z,67.86
2023-03-23T23:52:47.181Z,67.81
2023-03-23T23:53:53.542Z,67.91
2023-03-23T23:54:56.148Z,67.56
2023-03-23T23:56:03.516Z,67.71
2023-03-23T23:57:06.260Z,68.05
2023-03-23T23:58:08.631Z,67.78
2023-03-23T23:59:10.942Z,68.09
